Latest Coastal Weather Observations for Sydney Harbour

IDN60701

Issued at 1:32 pm EST Monday 1 June 2020 (issued every 10 minutes, with the page automatically refreshed every 10 minutes)

About coastal observations | Map of coastal stations | Coastal observations for NSW | Marine services | Other Formats
Station Details ID: 066196 Name: WEDDING CAKE WEST Lat: -33.84 Lon: 151.26 Height: 6.0 m
Data from the previous 72 hours. | See also: Recent months at Sydney Harbour
Date/Time
EST
Wind Sea
Height
m
Swell Vis
km
Cloud Weather Temp
°C
Press
hPa
Rain since
9am
mm
Dir  Spd
kts
Gust
kts
Height
m
Period
s
Dir
01/01:30pm NNW 18 33 - - - - - - - 21.8 - -
01/01:17pm NNW 18 29 - - - - - - - 21.6 - -
01/01:00pm N 15 22 - - - - - - - 21.4 - -
01/12:30pm N 18 25 - - - - - - - 21.1 - -
01/12:00pm NNW 17 22 - - - - - - - 20.7 - -
01/11:30am N 14 21 - - - - - - - 20.3 - -
01/11:00am N 15 21 - - - - - - - 20.0 - -
01/10:30am N 14 22 - - - - - - - 19.9 - -
01/10:00am N 12 19 - - - - - - - 19.5 - -
01/09:30am N 11 16 - - - - - - - 19.0 - -
01/09:00am N 11 16 - - - - - - - 18.5 - -
01/08:30am NNW 10 15 - - - - - - - 18.0 - -
01/08:00am NNW 7 9 - - - - - - - 17.6 - -
01/07:30am N 8 10 - - - - - - - 17.6 - -
01/07:00am N 8 11 - - - - - - - 17.7 - -
01/06:30am N 9 14 - - - - - - - 17.9 - -
01/06:00am N 11 14 - - - - - - - 18.1 - -
01/05:30am N 9 12 - - - - - - - 17.9 - -
01/05:00am NNW 12 15 - - - - - - - 18.0 - -
01/04:30am NNW 10 15 - - - - - - - 18.2 - -
01/04:00am N 5 8 - - - - - - - 17.7 - -
01/03:30am WNW 1 4 - - - - - - - 17.2 - -
01/03:00am WNW 4 6 - - - - - - - 17.6 - -
01/02:30am NNW 5 8 - - - - - - - 17.9 - -
01/02:00am N 6 8 - - - - - - - 18.1 - -
01/01:30am NNW 8 11 - - - - - - - 18.0 - -
01/01:00am NNW 9 12 - - - - - - - 18.2 - -
01/12:30am NNW 7 9 - - - - - - - 18.2 - -
01/12:00am NNW 10 13 - - - - - - - 18.3 - -
 
Date/Time
EST
Wind Sea
Height
m
Swell Vis
km
Cloud Weather Temp
°C
Press
hPa
Rain since
9am
mm
Dir  Spd
kts
Gust
kts
Height
m
Period
s
Dir
31/11:30pm NNW 9 14 - - - - - - - 18.4 - -
31/11:00pm NNW 9 12 - - - - - - - 18.5 - -
31/10:30pm NW 8 11 - - - - - - - 18.4 - -
31/10:00pm N 5 6 - - - - - - - 17.6 - -
31/09:30pm NNW 5 7 - - - - - - - 18.1 - -
31/09:00pm NNW 6 7 - - - - - - - 18.6 - -
31/08:30pm NNW 8 11 - - - - - - - 19.1 - -
31/08:00pm NNW 6 8 - - - - - - - 19.0 - -
31/07:30pm NNW 10 12 - - - - - - - 19.2 - -
31/07:00pm NNW 9 11 - - - - - - - 19.3 - -
31/06:30pm N 9 13 - - - - - - - 19.3 - -
31/06:00pm N 9 11 - - - - - - - 19.3 - -
31/05:30pm N 10 12 - - - - - - - 19.8 - -
31/05:00pm N 5 6 - - - - - - - 19.7 - -
31/04:30pm N 5 6 - - - - - - - 19.8 - -
31/04:00pm N 4 5 - - - - - - - 21.2 - -
31/03:30pm N 6 8 - - - - - - - 21.2 - -
31/03:00pm N 9 11 - - - - - - - 21.0 - -
31/02:30pm N 9 11 - - - - - - - 20.7 - -
31/02:00pm N 9 13 - - - - - - - 20.5 - -
31/01:30pm N 12 16 - - - - - - - 20.3 - -
31/01:00pm N 12 16 - - - - - - - 19.8 - -
31/12:30pm N 10 14 - - - - - - - 19.4 - -
31/12:00pm N 11 15 - - - - - - - 19.2 - -
31/11:30am NNW 13 17 - - - - - - - 19.0 - -
31/11:00am NNW 15 19 - - - - - - - 19.1 - -
31/10:30am N 12 15 - - - - - - - 19.4 - -
31/10:00am NNW 11 14 - - - - - - - 18.8 - -
31/09:30am N 12 16 - - - - - - - 18.9 - -
31/09:00am N 8 10 - - - - - - - 18.9 - -
31/08:30am N 11 13 - - - - - - - 17.9 - -
31/08:00am N 7 9 - - - - - - - 17.2 - -
31/07:30am N 9 11 - - - - - - - 16.8 - -
31/07:00am N 9 11 - - - - - - - 17.0 - -
31/06:30am N 6 8 - - - - - - - 17.0 - -
31/06:00am N 4 5 - - - - - - - 15.8 - -
31/05:30am N 3 5 - - - - - - - 15.5 - -
31/05:00am WNW 3 5 - - - - - - - 15.5 - -
31/04:30am NW 4 4 - - - - - - - 15.6 - -
31/04:00am N 4 5 - - - - - - - 15.8 - -
31/03:30am W 5 6 - - - - - - - 15.7 - -
31/03:00am NNE 7 8 - - - - - - - 16.1 - -
31/02:30am NNW 4 6 - - - - - - - 16.1 - -
31/02:00am W 3 6 - - - - - - - 16.1 - -
31/01:30am NNW 9 11 - - - - - - - 16.9 - -
31/01:00am N 9 12 - - - - - - - 17.1 - -
31/12:30am N 9 13 - - - - - - - 17.2 - -
31/12:00am N 12 16 - - - - - - - 17.4 - -
 
Date/Time
EST
Wind Sea
Height
m
Swell Vis
km
Cloud Weather Temp
°C
Press
hPa
Rain since
9am
mm
Dir  Spd
kts
Gust
kts
Height
m
Period
s
Dir
30/11:30pm N 11 15 - - - - - - - 17.4 - -
30/11:00pm N 14 18 - - - - - - - 18.0 - -
30/10:30pm N 13 16 - - - - - - - 17.9 - -
30/10:00pm N 10 12 - - - - - - - 17.7 - -
30/09:30pm N 11 15 - - - - - - - 18.0 - -
30/09:00pm N 8 9 - - - - - - - 17.7 - -
30/08:30pm N 6 8 - - - - - - - 17.7 - -
30/08:00pm NNW 6 8 - - - - - - - 17.9 - -
30/07:30pm N 10 12 - - - - - - - 18.9 - -
30/07:00pm NNE 14 16 - - - - - - - 19.3 - -
30/06:30pm NNE 13 16 - - - - - - - 19.4 - -
30/06:00pm NNE 14 17 - - - - - - - 19.2 - -
30/05:30pm NNE 15 19 - - - - - - - 19.3 - -
30/05:00pm NNE 15 18 - - - - - - - 19.3 - -
30/04:30pm NNE 13 15 - - - - - - - 19.2 - -
30/04:00pm NNE 13 15 - - - - - - - 19.3 - -
30/03:30pm NNE 13 15 - - - - - - - 19.2 - -
30/03:00pm NNE 13 16 - - - - - - - 19.1 - -
30/02:30pm NNE 13 16 - - - - - - - 19.1 - -
30/02:00pm NNE 13 16 - - - - - - - 19.1 - -
30/01:30pm NNE 12 15 - - - - - - - 19.1 - -
30/01:00pm NNE 12 14 - - - - - - - 19.1 - -
30/12:30pm NE 6 12 - - - - - - - 19.3 - -
30/12:00pm SW 4 4 - - - - - - - 18.1 - -
30/11:30am SSW 5 6 - - - - - - - 17.5 - -
30/11:00am SSW 5 6 - - - - - - - 17.2 - -
30/10:30am SW 7 8 - - - - - - - 16.7 - -
30/10:00am SW 7 8 - - - - - - - 16.5 - -
30/09:30am SW 6 7 - - - - - - - 16.2 - -
30/09:00am SSW 6 7 - - - - - - - 15.8 - -
30/08:30am SW 5 6 - - - - - - - 15.6 - -
30/08:00am SW 3 4 - - - - - - - 15.5 - -
30/07:30am SSW 5 7 - - - - - - - 14.9 - -
30/07:00am SW 5 6 - - - - - - - 14.8 - -
30/06:30am SW 6 7 - - - - - - - 14.6 - -
30/06:00am WSW 3 5 - - - - - - - 14.9 - -
30/05:30am WSW 4 6 - - - - - - - 14.8 - -
30/05:00am WSW 4 6 - - - - - - - 14.7 - -
30/04:30am SW 7 8 - - - - - - - 14.8 - -
30/04:00am SW 4 7 - - - - - - - 15.2 - -
30/03:30am WSW 3 5 - - - - - - - 15.1 - -
30/03:00am SW 4 6 - - - - - - - 15.7 - -
30/02:30am WSW 3 5 - - - - - - - 16.1 - -
30/02:00am WSW 2 5 - - - - - - - 15.6 - -
30/01:30am SW 3 4 - - - - - - - 16.0 - -
30/01:00am SW 2 4 - - - - - - - 16.1 - -
30/12:30am SW 7 8 - - - - - - - 16.1 - -
30/12:00am SW 7 8 - - - - - - - 16.2 - -
 
Date/Time
EST
Wind Sea
Height
m
Swell Vis
km
Cloud Weather Temp
°C
Press
hPa
Rain since
9am
mm
Dir  Spd
kts
Gust
kts
Height
m
Period
s
Dir
29/11:30pm WSW 4 6 - - - - - - - 16.4 - -
29/11:00pm W 4 5 - - - - - - - 16.3 - -
29/10:30pm W 6 10 - - - - - - - 16.3 - -
29/10:00pm WSW 8 11 - - - - - - - 16.8 - -
29/09:30pm W 3 5 - - - - - - - 16.9 - -
29/09:00pm CALM 0 0 - - - - - - - 17.0 - -
29/08:30pm SW 4 6 - - - - - - - 17.0 - -
29/08:00pm WSW 4 5 - - - - - - - 17.0 - -
29/07:30pm WSW 5 6 - - - - - - - 16.9 - -
29/07:00pm WSW 5 6 - - - - - - - 17.0 - -
29/06:30pm WSW 5 6 - - - - - - - 17.0 - -
29/06:00pm WSW 5 6 - - - - - - - 17.1 - -
29/05:30pm SW 5 6 - - - - - - - 17.5 - -
29/05:00pm SW 8 9 - - - - - - - 17.5 - -
29/04:30pm SW 7 8 - - - - - - - 17.6 - -
29/04:00pm SW 9 10 - - - - - - - 17.4 - -
29/03:30pm WSW 7 8 - - - - - - - 17.6 - -
29/03:00pm W 8 10 - - - - - - - 17.5 - -
29/02:30pm W 9 11 - - - - - - - 17.2 - -
29/02:00pm W 10 11 - - - - - - - 17.0 - -

Other formats

Comma delimited format used in spreadsheet applications
http://www.bom.gov.au/fwo/IDN60701/IDN60701.95766.axf

JavaScript Object Notation format (JSON) in row-major order
http://www.bom.gov.au/fwo/IDN60701/IDN60701.95766.json

Data quality

Most of these data are generated automatically and are frequently updated. Quality checks on data are not normally performed. It is possible for incorrect values to appear. Refer to information at About Latest Weather Observations and please check the disclaimer before using these data.